createdAt,value
2023-04-26T00:00:04.037Z,1.61
2023-04-26T00:00:16.278Z,1.60
2023-04-26T00:00:29.448Z,1.63
2023-04-26T00:00:40.146Z,1.63
2023-04-26T00:00:50.884Z,1.63
2023-04-26T00:01:02.645Z,1.63
2023-04-26T00:01:15.066Z,1.64
2023-04-26T00:01:27.558Z,1.64
2023-04-26T00:01:38.332Z,1.64
2023-04-26T00:01:49.073Z,1.64
2023-04-26T00:02:01.555Z,1.65
2023-04-26T00:02:14.253Z,1.65
2023-04-26T00:02:26.765Z,1.67
2023-04-26T00:02:39.497Z,1.67
2023-04-26T00:02:51.334Z,1.68
2023-04-26T00:03:04.936Z,1.65
2023-04-26T00:03:16.824Z,1.67
2023-04-26T00:03:27.750Z,1.67
2023-04-26T00:03:39.776Z,1.67
2023-04-26T00:03:50.862Z,1.67
2023-04-26T00:04:02.784Z,1.67
2023-04-26T00:04:16.340Z,1.68
2023-04-26T00:04:28.462Z,1.68
2023-04-26T00:04:41.139Z,1.68
2023-04-26T00:04:53.038Z,1.68
2023-04-26T00:05:05.800Z,1.70
2023-04-26T00:05:17.713Z,1.70
2023-04-26T00:05:31.505Z,1.71
2023-04-26T00:05:42.298Z,1.71
2023-04-26T00:05:54.048Z,1.72
2023-04-26T00:06:06.492Z,1.71
2023-04-26T00:06:17.249Z,1.72
2023-04-26T00:06:29.714Z,1.71
2023-04-26T00:06:40.505Z,1.72
2023-04-26T00:06:51.322Z,1.74
2023-04-26T00:07:02.066Z,1.72
2023-04-26T00:07:13.769Z,1.74
2023-04-26T00:07:26.477Z,1.72
2023-04-26T00:07:37.260Z,1.74
2023-04-26T00:07:49.778Z,1.74
2023-04-26T00:08:00.486Z,1.71
2023-04-26T00:08:12.699Z,1.74
2023-04-26T00:08:25.876Z,1.74
2023-04-26T00:08:36.629Z,1.72
2023-04-26T00:08:47.442Z,1.72
2023-04-26T00:08:58.163Z,1.72
2023-04-26T00:09:09.854Z,1.72
2023-04-26T00:09:20.571Z,1.72
2023-04-26T00:09:31.288Z,1.72
2023-04-26T00:09:42.016Z,1.72
2023-04-26T00:09:53.758Z,1.71
2023-04-26T00:10:04.458Z,1.74
2023-04-26T00:10:16.898Z,1.72
2023-04-26T00:10:27.675Z,1.72
2023-04-26T00:10:40.332Z,1.72
2023-04-26T00:10:52.763Z,1.74
2023-04-26T00:11:03.468Z,1.72
2023-04-26T00:11:15.196Z,1.74
2023-04-26T00:11:26.930Z,1.74
2023-04-26T00:11:38.608Z,1.75
2023-04-26T00:11:50.310Z,1.75
2023-04-26T00:12:01.992Z,1.74
2023-04-26T00:12:12.730Z,1.75
2023-04-26T00:12:24.415Z,1.74
2023-04-26T00:12:36.424Z,1.75
2023-04-26T00:12:47.094Z,1.74
2023-04-26T00:12:57.832Z,1.74
2023-04-26T00:13:08.518Z,1.72
2023-04-26T00:13:20.930Z,1.74
2023-04-26T00:13:31.639Z,1.71
2023-04-26T00:13:42.328Z,1.72
2023-04-26T00:13:54.772Z,1.71
2023-04-26T00:14:06.501Z,1.71
2023-04-26T00:14:17.237Z,1.71
2023-04-26T00:14:29.426Z,1.71
2023-04-26T00:14:40.114Z,1.71
2023-04-26T00:14:51.793Z,1.71
2023-04-26T00:15:02.598Z,1.70
2023-04-26T00:15:13.272Z,1.70
2023-04-26T00:15:25.669Z,1.70
2023-04-26T00:15:37.347Z,1.70
2023-04-26T00:15:48.130Z,1.71
2023-04-26T00:16:00.575Z,1.68
2023-04-26T00:16:12.274Z,1.70
2023-04-26T00:16:22.981Z,1.68
2023-04-26T00:16:34.699Z,1.70
2023-04-26T00:16:45.502Z,1.70
2023-04-26T00:16:57.248Z,1.68
2023-04-26T00:17:09.444Z,1.70
2023-04-26T00:17:20.187Z,1.70
2023-04-26T00:17:30.943Z,1.71
2023-04-26T00:17:41.723Z,1.70
2023-04-26T00:17:52.443Z,1.71
2023-04-26T00:18:03.251Z,1.71
2023-04-26T00:18:14.964Z,1.72
2023-04-26T00:18:25.669Z,1.72
2023-04-26T00:18:37.408Z,1.72
2023-04-26T00:18:49.092Z,1.72
2023-04-26T00:18:59.829Z,1.72
2023-04-26T00:19:10.528Z,1.72
2023-04-26T00:19:22.156Z,1.72
2023-04-26T00:19:35.287Z,1.71
2023-04-26T00:19:47.034Z,1.71
2023-04-26T00:19:57.748Z,1.71
2023-04-26T00:20:08.445Z,1.70
2023-04-26T00:20:19.161Z,1.70
2023-04-26T00:20:29.948Z,1.71
2023-04-26T00:20:40.637Z,1.70
2023-04-26T00:20:51.388Z,1.71
2023-04-26T00:21:04.579Z,1.71
2023-04-26T00:21:17.083Z,1.71
2023-04-26T00:21:27.811Z,1.71
2023-04-26T00:21:40.244Z,1.70
2023-04-26T00:21:52.633Z,1.71
2023-04-26T00:22:03.417Z,1.71
2023-04-26T00:22:14.102Z,1.71
2023-04-26T00:22:25.796Z,1.71
2023-04-26T00:22:38.229Z,1.72
2023-04-26T00:22:49.981Z,1.72
2023-04-26T00:23:03.179Z,1.71
2023-04-26T00:23:13.889Z,1.71
2023-04-26T00:23:25.650Z,1.71
2023-04-26T00:23:38.321Z,1.71
2023-04-26T00:23:49.030Z,1.71
2023-04-26T00:23:59.738Z,1.71
2023-04-26T00:24:10.512Z,1.70
2023-04-26T00:24:21.238Z,1.71
2023-04-26T00:24:31.938Z,1.71
2023-04-26T00:24:45.101Z,1.71
2023-04-26T00:24:55.827Z,1.70
2023-04-26T00:25:06.613Z,1.71
2023-04-26T00:25:18.295Z,1.71
2023-04-26T00:25:29.008Z,1.72
2023-04-26T00:25:41.286Z,1.74
2023-04-26T00:25:54.200Z,1.72
2023-04-26T00:26:06.645Z,1.74
2023-04-26T00:26:18.824Z,1.74
2023-04-26T00:26:31.264Z,1.74
2023-04-26T00:26:41.943Z,1.75
2023-04-26T00:26:54.389Z,1.75
2023-04-26T00:27:06.827Z,1.75
2023-04-26T00:27:17.591Z,1.79
2023-04-26T00:27:30.008Z,1.81
2023-04-26T00:27:41.741Z,1.82
2023-04-26T00:27:53.545Z,1.82
2023-04-26T00:28:05.977Z,1.83
2023-04-26T00:28:18.392Z,1.82
2023-04-26T00:28:30.802Z,1.82
2023-04-26T00:28:43.231Z,1.83
2023-04-26T00:28:54.306Z,1.83
2023-04-26T00:29:06.872Z,1.82
2023-04-26T00:29:17.594Z,1.82
2023-04-26T00:29:30.800Z,1.83
2023-04-26T00:29:42.472Z,1.81
2023-04-26T00:29:54.879Z,1.83
2023-04-26T00:30:06.569Z,1.83
2023-04-26T00:30:18.975Z,1.83
2023-04-26T00:30:31.659Z,1.83
2023-04-26T00:30:42.362Z,1.82
2023-04-26T00:30:53.198Z,1.85
2023-04-26T00:31:04.922Z,1.83
2023-04-26T00:31:18.784Z,1.83
2023-04-26T00:31:31.288Z,1.83
2023-04-26T00:31:43.010Z,1.85
2023-04-26T00:31:53.709Z,1.83
2023-04-26T00:32:04.851Z,1.82
2023-04-26T00:32:15.646Z,1.83
2023-04-26T00:32:26.388Z,1.83
2023-04-26T00:32:39.692Z,1.83
2023-04-26T00:32:50.382Z,1.83
2023-04-26T00:33:02.868Z,1.83
2023-04-26T00:33:14.908Z,1.83
2023-04-26T00:33:26.566Z,1.85
2023-04-26T00:33:38.551Z,1.83
2023-04-26T00:33:49.285Z,1.85
2023-04-26T00:34:01.440Z,1.85
2023-04-26T00:34:12.143Z,1.86
2023-04-26T00:34:24.529Z,1.85
2023-04-26T00:34:35.291Z,1.86
2023-04-26T00:34:48.482Z,1.85
2023-04-26T00:35:00.892Z,1.85
2023-04-26T00:35:12.604Z,1.85
2023-04-26T00:35:23.303Z,1.88
2023-04-26T00:35:35.487Z,1.88
2023-04-26T00:35:47.449Z,1.88
2023-04-26T00:35:58.217Z,1.88
2023-04-26T00:36:09.869Z,1.89
2023-04-26T00:36:20.576Z,1.89
2023-04-26T00:36:31.306Z,1.89
2023-04-26T00:36:42.007Z,1.90
2023-04-26T00:36:52.735Z,1.89
2023-04-26T00:37:04.392Z,1.89
2023-04-26T00:37:15.094Z,1.89
2023-04-26T00:37:26.791Z,1.90
2023-04-26T00:37:39.014Z,1.90
2023-04-26T00:37:51.474Z,1.92
2023-04-26T00:38:03.862Z,1.90
2023-04-26T00:38:16.282Z,1.90
2023-04-26T00:38:27.044Z,1.92
2023-04-26T00:38:37.815Z,1.92
2023-04-26T00:38:48.577Z,1.93
2023-04-26T00:39:00.258Z,1.92
2023-04-26T00:39:13.587Z,1.92
2023-04-26T00:39:24.275Z,1.92
2023-04-26T00:39:35.006Z,1.92
2023-04-26T00:39:48.193Z,1.93
2023-04-26T00:39:58.934Z,1.95
2023-04-26T00:40:11.157Z,1.95
2023-04-26T00:40:23.540Z,1.93
2023-04-26T00:40:35.225Z,1.93
2023-04-26T00:40:47.603Z,1.95
2023-04-26T00:40:58.308Z,1.95
2023-04-26T00:41:11.437Z,1.95
2023-04-26T00:41:22.141Z,1.98
2023-04-26T00:41:32.837Z,1.98
2023-04-26T00:41:43.546Z,2.00
2023-04-26T00:41:55.244Z,2.00
2023-04-26T00:42:07.025Z,2.00
2023-04-26T00:42:19.438Z,1.98
2023-04-26T00:42:32.068Z,2.01
2023-04-26T00:42:45.251Z,2.00
2023-04-26T00:42:57.685Z,2.00
2023-04-26T00:43:08.650Z,2.00
2023-04-26T00:43:19.322Z,2.01
2023-04-26T00:43:31.736Z,2.00
2023-04-26T00:43:44.403Z,2.00
2023-04-26T00:43:55.103Z,2.01
2023-04-26T00:44:05.804Z,2.01
2023-04-26T00:44:18.201Z,2.00
2023-04-26T00:44:30.588Z,2.01
2023-04-26T00:44:43.060Z,2.01
2023-04-26T00:44:55.509Z,2.02
2023-04-26T00:45:07.935Z,2.01
2023-04-26T00:45:19.666Z,2.02
2023-04-26T00:45:30.443Z,2.01
2023-04-26T00:45:41.157Z,2.02
2023-04-26T00:45:53.334Z,2.01
2023-04-26T00:46:04.099Z,2.01
2023-04-26T00:46:17.449Z,2.01
2023-04-26T00:46:28.260Z,2.02
2023-04-26T00:46:39.943Z,2.02
2023-04-26T00:46:51.613Z,2.04
2023-04-26T00:47:03.298Z,2.05
2023-04-26T00:47:14.988Z,2.02
2023-04-26T00:47:26.754Z,2.04
2023-04-26T00:47:38.420Z,2.05
2023-04-26T00:47:50.908Z,2.04
2023-04-26T00:48:01.575Z,2.04
2023-04-26T00:48:14.551Z,2.04
2023-04-26T00:48:25.365Z,2.04
2023-04-26T00:48:37.859Z,2.05
2023-04-26T00:48:48.594Z,2.04
2023-04-26T00:49:01.168Z,2.04
2023-04-26T00:49:15.332Z,2.04
2023-04-26T00:49:28.032Z,2.05
2023-04-26T00:49:38.750Z,2.05
2023-04-26T00:49:49.491Z,2.04
2023-04-26T00:50:01.221Z,2.04
2023-04-26T00:50:12.893Z,2.04
2023-04-26T00:50:25.100Z,2.04
2023-04-26T00:50:38.085Z,2.02
2023-04-26T00:50:50.496Z,2.02
2023-04-26T00:51:01.201Z,2.04
2023-04-26T00:51:13.659Z,2.02
2023-04-26T00:51:25.884Z,2.04
2023-04-26T00:51:37.640Z,2.04
2023-04-26T00:51:49.337Z,2.04
2023-04-26T00:52:02.247Z,2.02
2023-04-26T00:52:12.939Z,2.02
2023-04-26T00:52:23.653Z,2.04
2023-04-26T00:52:36.189Z,2.04
2023-04-26T00:52:48.409Z,2.05
2023-04-26T00:52:59.101Z,2.02
2023-04-26T00:53:09.826Z,2.02
2023-04-26T00:53:20.538Z,2.02
2023-04-26T00:53:31.226Z,2.02
2023-04-26T00:53:43.669Z,2.02
2023-04-26T00:53:56.355Z,2.01
2023-04-26T00:54:07.107Z,2.01
2023-04-26T00:54:17.820Z,2.00
2023-04-26T00:54:28.579Z,2.01
2023-04-26T00:54:40.768Z,2.00
2023-04-26T00:54:51.592Z,1.98
2023-04-26T00:55:04.773Z,1.98
2023-04-26T00:55:15.525Z,1.98
2023-04-26T00:55:27.964Z,1.98
2023-04-26T00:55:38.670Z,2.00
2023-04-26T00:55:50.850Z,1.98
2023-04-26T00:56:01.622Z,1.98
2023-04-26T00:56:12.373Z,1.98
2023-04-26T00:56:24.036Z,1.98
2023-04-26T00:56:34.798Z,1.95
2023-04-26T00:56:45.504Z,1.93
2023-04-26T00:56:57.173Z,1.93
2023-04-26T00:57:08.885Z,1.93
2023-04-26T00:57:19.670Z,1.92
2023-04-26T00:57:30.404Z,1.93
2023-04-26T00:57:42.606Z,1.92
2023-04-26T00:57:53.373Z,1.93
2023-04-26T00:58:06.532Z,1.90
2023-04-26T00:58:17.238Z,1.90
2023-04-26T00:58:28.894Z,1.90
2023-04-26T00:58:40.643Z,1.89
2023-04-26T00:58:54.262Z,1.89
2023-04-26T00:59:05.103Z,1.89
2023-04-26T00:59:15.846Z,1.90
2023-04-26T00:59:26.551Z,1.88
2023-04-26T00:59:38.985Z,1.89
2023-04-26T00:59:49.702Z,1.88
2023-04-26T01:00:00.444Z,1.88
2023-04-26T01:00:12.077Z,1.86
2023-04-26T01:00:22.802Z,1.86
2023-04-26T01:00:34.947Z,1.86
2023-04-26T01:00:46.643Z,1.85
2023-04-26T01:00:57.422Z,1.85
2023-04-26T01:01:09.108Z,1.85
2023-04-26T01:01:20.823Z,1.85
2023-04-26T01:01:32.587Z,1.83
2023-04-26T01:01:44.979Z,1.83
2023-04-26T01:01:55.732Z,1.82
2023-04-26T01:02:06.457Z,1.81
2023-04-26T01:02:17.262Z,1.81
2023-04-26T01:02:28.059Z,1.81
2023-04-26T01:02:39.032Z,1.79
2023-04-26T01:02:50.089Z,1.79
2023-04-26T01:03:02.630Z,1.79
2023-04-26T01:03:14.858Z,1.77
2023-04-26T01:03:25.772Z,1.77
2023-04-26T01:03:37.831Z,1.75
2023-04-26T01:03:48.716Z,1.75
2023-04-26T01:04:01.633Z,1.74
2023-04-26T01:04:14.266Z,1.72
2023-04-26T01:04:26.135Z,1.72
2023-04-26T01:04:37.838Z,1.72
2023-04-26T01:04:48.540Z,1.71
2023-04-26T01:04:59.233Z,1.71
2023-04-26T01:05:11.011Z,1.71
2023-04-26T01:05:22.710Z,1.70
2023-04-26T01:05:33.421Z,1.70
2023-04-26T01:05:45.079Z,1.68
2023-04-26T01:05:55.980Z,1.68
2023-04-26T01:06:08.182Z,1.70
2023-04-26T01:06:19.836Z,1.71
2023-04-26T01:06:31.556Z,1.72
2023-04-26T01:06:42.300Z,1.74
2023-04-26T01:06:53.971Z,1.74
2023-04-26T01:07:06.409Z,1.74
2023-04-26T01:07:17.094Z,1.75
2023-04-26T01:07:27.833Z,1.75
2023-04-26T01:07:38.628Z,1.75
2023-04-26T01:07:49.385Z,1.75
2023-04-26T01:08:00.119Z,1.77
2023-04-26T01:08:10.906Z,1.75
2023-04-26T01:08:21.607Z,1.75
2023-04-26T01:08:35.357Z,1.74
2023-04-26T01:08:46.035Z,1.72
2023-04-26T01:08:56.784Z,1.74
2023-04-26T01:09:09.201Z,1.74
2023-04-26T01:09:19.936Z,1.74
2023-04-26T01:09:30.653Z,1.74
2023-04-26T01:09:44.326Z,1.74
2023-04-26T01:09:56.723Z,1.72
2023-04-26T01:10:09.169Z,1.72
2023-04-26T01:10:20.852Z,1.71
2023-04-26T01:10:33.283Z,1.71
2023-04-26T01:10:44.080Z,1.71
2023-04-26T01:10:54.752Z,1.70
2023-04-26T01:11:07.737Z,1.71
2023-04-26T01:11:20.149Z,1.68
2023-04-26T01:11:30.847Z,1.67
2023-04-26T01:11:42.515Z,1.65
2023-04-26T01:11:54.995Z,1.65
2023-04-26T01:12:06.698Z,1.65
2023-04-26T01:12:17.423Z,1.65
2023-04-26T01:12:29.607Z,1.67
2023-04-26T01:12:41.268Z,1.64
2023-04-26T01:12:54.446Z,1.65
2023-04-26T01:13:05.200Z,1.63
2023-04-26T01:13:15.968Z,1.64
2023-04-26T01:13:29.143Z,1.64
2023-04-26T01:13:41.151Z,1.64
2023-04-26T01:13:51.887Z,1.63
2023-04-26T01:14:04.056Z,1.63
2023-04-26T01:14:16.268Z,1.64
2023-04-26T01:14:26.941Z,1.61
2023-04-26T01:14:38.620Z,1.63
2023-04-26T01:14:51.032Z,1.61
2023-04-26T01:15:01.774Z,1.60
2023-04-26T01:15:13.451Z,1.60
2023-04-26T01:15:26.652Z,1.60
2023-04-26T01:15:39.857Z,1.60
2023-04-26T01:15:50.599Z,1.57
2023-04-26T01:16:02.285Z,1.57
2023-04-26T01:16:14.708Z,1.56
2023-04-26T01:16:27.155Z,1.56
2023-04-26T01:16:37.890Z,1.56
2023-04-26T01:16:50.330Z,1.54
2023-04-26T01:17:01.064Z,1.54
2023-04-26T01:17:12.775Z,1.54
2023-04-26T01:17:24.491Z,1.53
2023-04-26T01:17:36.683Z,1.53
2023-04-26T01:17:47.431Z,1.52
2023-04-26T01:17:59.151Z,1.52
2023-04-26T01:18:10.835Z,1.50
2023-04-26T01:18:23.289Z,1.50
2023-04-26T01:18:34.997Z,1.50
2023-04-26T01:18:46.676Z,1.49
2023-04-26T01:18:57.388Z,1.50
2023-04-26T01:19:08.145Z,1.49
2023-04-26T01:19:18.883Z,1.50
2023-04-26T01:19:32.596Z,1.49
2023-04-26T01:19:45.014Z,1.50
2023-04-26T01:19:57.978Z,1.49
2023-04-26T01:20:09.723Z,1.49
2023-04-26T01:20:21.642Z,1.49
2023-04-26T01:20:32.368Z,1.49
2023-04-26T01:20:44.587Z,1.49
2023-04-26T01:20:56.279Z,1.49
2023-04-26T01:21:08.039Z,1.49
2023-04-26T01:21:21.208Z,1.47
2023-04-26T01:21:31.953Z,1.47
2023-04-26T01:21:42.666Z,1.47
2023-04-26T01:21:55.860Z,1.47
2023-04-26T01:22:07.561Z,1.47
2023-04-26T01:22:18.343Z,1.46
2023-04-26T01:22:29.097Z,1.46
2023-04-26T01:22:41.298Z,1.44
2023-04-26T01:22:52.010Z,1.47
2023-04-26T01:23:04.436Z,1.44
2023-04-26T01:23:16.625Z,1.47
2023-04-26T01:23:28.310Z,1.47
2023-04-26T01:23:40.226Z,1.49
2023-04-26T01:23:51.906Z,1.47
2023-04-26T01:24:03.645Z,1.49
2023-04-26T01:24:16.157Z,1.47
2023-04-26T01:24:27.849Z,1.47
2023-04-26T01:24:38.568Z,1.46
2023-04-26T01:24:51.259Z,1.47
2023-04-26T01:25:01.961Z,1.47
2023-04-26T01:25:13.659Z,1.47
2023-04-26T01:25:25.289Z,1.47
2023-04-26T01:25:36.057Z,1.47
2023-04-26T01:25:46.746Z,1.47
2023-04-26T01:25:58.967Z,1.49
2023-04-26T01:26:09.703Z,1.47
2023-04-26T01:26:22.195Z,1.50
2023-04-26T01:26:32.944Z,1.49
2023-04-26T01:26:43.709Z,1.50
2023-04-26T01:26:54.398Z,1.49
2023-04-26T01:27:05.106Z,1.49
2023-04-26T01:27:15.853Z,1.49
2023-04-26T01:27:28.250Z,1.49
2023-04-26T01:27:40.000Z,1.49
2023-04-26T01:27:50.701Z,1.49
2023-04-26T01:28:01.418Z,1.47
2023-04-26T01:28:13.350Z,1.47
2023-04-26T01:28:24.077Z,1.47
2023-04-26T01:28:36.483Z,1.46
2023-04-26T01:28:48.160Z,1.46
2023-04-26T01:28:59.829Z,1.47
2023-04-26T01:29:10.550Z,1.46
2023-04-26T01:29:21.324Z,1.47
2023-04-26T01:29:34.024Z,1.47
2023-04-26T01:29:47.213Z,1.46
2023-04-26T01:30:00.867Z,1.46
2023-04-26T01:30:12.555Z,1.46
2023-04-26T01:30:24.966Z,1.46
2023-04-26T01:30:35.657Z,1.44
2023-04-26T01:30:48.070Z,1.44
2023-04-26T01:30:59.817Z,1.44
2023-04-26T01:31:12.223Z,1.43
2023-04-26T01:31:24.918Z,1.43
2023-04-26T01:31:36.719Z,1.42
2023-04-26T01:31:48.497Z,1.42
2023-04-26T01:32:00.694Z,1.42
2023-04-26T01:32:13.091Z,1.42
2023-04-26T01:32:23.786Z,1.39
2023-04-26T01:32:36.285Z,1.38
2023-04-26T01:32:48.737Z,1.39
2023-04-26T01:32:59.502Z,1.38
2023-04-26T01:33:12.651Z,1.36
2023-04-26T01:33:23.361Z,1.36
2023-04-26T01:33:35.764Z,1.35
2023-04-26T01:33:47.444Z,1.36
2023-04-26T01:33:58.193Z,1.35
2023-04-26T01:34:10.932Z,1.35
2023-04-26T01:34:21.631Z,1.34
2023-04-26T01:34:34.047Z,1.32
2023-04-26T01:34:45.835Z,1.32
2023-04-26T01:34:56.649Z,1.31
2023-04-26T01:35:07.529Z,1.31
2023-04-26T01:35:20.698Z,1.31
2023-04-26T01:35:32.365Z,1.31
2023-04-26T01:35:43.063Z,1.32
2023-04-26T01:35:53.811Z,1.31
2023-04-26T01:36:04.450Z,1.32
2023-04-26T01:36:15.153Z,1.31
2023-04-26T01:36:25.860Z,1.29
2023-04-26T01:36:36.566Z,1.31
2023-04-26T01:36:49.760Z,1.31
2023-04-26T01:37:01.717Z,1.28
2023-04-26T01:37:12.465Z,1.28
2023-04-26T01:37:23.199Z,1.29
2023-04-26T01:37:33.929Z,1.29
2023-04-26T01:37:47.590Z,1.29
2023-04-26T01:37:59.992Z,1.28
2023-04-26T01:38:10.707Z,1.28
2023-04-26T01:38:23.095Z,1.26
2023-04-26T01:38:34.764Z,1.26
2023-04-26T01:38:45.534Z,1.26
2023-04-26T01:38:56.305Z,1.25
2023-04-26T01:39:06.997Z,1.26
2023-04-26T01:39:17.751Z,1.25
2023-04-26T01:39:28.476Z,1.25
2023-04-26T01:39:39.172Z,1.24
2023-04-26T01:39:49.893Z,1.21
2023-04-26T01:40:01.576Z,1.24
2023-04-26T01:40:12.317Z,1.21
2023-04-26T01:40:23.064Z,1.21
2023-04-26T01:40:35.989Z,1.18
2023-04-26T01:40:47.664Z,1.18
2023-04-26T01:41:00.064Z,1.18
2023-04-26T01:41:11.743Z,1.18
2023-04-26T01:41:24.150Z,1.18
2023-04-26T01:41:35.841Z,1.17
2023-04-26T01:41:46.536Z,1.16
2023-04-26T01:41:57.235Z,1.17
2023-04-26T01:42:09.651Z,1.18
2023-04-26T01:42:21.342Z,1.18
2023-04-26T01:42:33.027Z,1.16
2023-04-26T01:42:44.698Z,1.18
2023-04-26T01:42:55.412Z,1.17
2023-04-26T01:43:06.113Z,1.17
2023-04-26T01:43:17.783Z,1.17
2023-04-26T01:43:28.528Z,1.16
2023-04-26T01:43:39.290Z,1.16
2023-04-26T01:43:52.476Z,1.16
2023-04-26T01:44:04.890Z,1.16
2023-04-26T01:44:15.580Z,1.16
2023-04-26T01:44:28.801Z,1.14
2023-04-26T01:44:39.483Z,1.14
2023-04-26T01:44:51.147Z,1.14
2023-04-26T01:45:01.844Z,1.14
2023-04-26T01:45:12.529Z,1.16
2023-04-26T01:45:25.060Z,1.14
2023-04-26T01:45:37.490Z,1.14
2023-04-26T01:45:48.188Z,1.16
2023-04-26T01:45:59.902Z,1.16
2023-04-26T01:46:10.662Z,1.16
2023-04-26T01:46:21.437Z,1.17
2023-04-26T01:46:33.275Z,1.16
2023-04-26T01:46:44.138Z,1.16
2023-04-26T01:46:54.902Z,1.16
2023-04-26T01:47:07.286Z,1.17
2023-04-26T01:47:18.996Z,1.17
2023-04-26T01:47:30.742Z,1.17
2023-04-26T01:47:42.479Z,1.17
2023-04-26T01:47:53.132Z,1.20
2023-04-26T01:48:03.899Z,1.18
2023-04-26T01:48:16.801Z,1.20
2023-04-26T01:48:27.485Z,1.18
2023-04-26T01:48:38.186Z,1.18
2023-04-26T01:48:48.896Z,1.20
2023-04-26T01:48:59.582Z,1.20
2023-04-26T01:49:12.788Z,1.20
2023-04-26T01:49:23.522Z,1.20
2023-04-26T01:49:34.277Z,1.18
2023-04-26T01:49:46.720Z,1.18
2023-04-26T01:50:00.938Z,1.20
2023-04-26T01:50:13.332Z,1.17
2023-04-26T01:50:25.753Z,1.17
2023-04-26T01:50:38.935Z,1.16
2023-04-26T01:50:49.679Z,1.17
2023-04-26T01:51:00.389Z,1.16
2023-04-26T01:51:12.157Z,1.16
2023-04-26T01:51:25.349Z,1.13
2023-04-26T01:51:37.039Z,1.13
2023-04-26T01:51:49.431Z,1.14
2023-04-26T01:52:02.607Z,1.13
2023-04-26T01:52:13.294Z,1.11
2023-04-26T01:52:24.046Z,1.11
2023-04-26T01:52:36.971Z,1.13
2023-04-26T01:52:49.400Z,1.13
2023-04-26T01:53:01.073Z,1.13
2023-04-26T01:53:12.811Z,1.11
2023-04-26T01:53:23.514Z,1.11
2023-04-26T01:53:35.922Z,1.10
2023-04-26T01:53:47.604Z,1.11
2023-04-26T01:53:58.319Z,1.11
2023-04-26T01:54:09.147Z,1.13
2023-04-26T01:54:19.865Z,1.13
2023-04-26T01:54:31.600Z,1.13
2023-04-26T01:54:45.221Z,1.13
2023-04-26T01:54:55.928Z,1.13
2023-04-26T01:55:08.382Z,1.14
2023-04-26T01:55:20.074Z,1.14
2023-04-26T01:55:30.768Z,1.16
2023-04-26T01:55:41.464Z,1.16
2023-04-26T01:55:53.143Z,1.14
2023-04-26T01:56:04.915Z,1.14
2023-04-26T01:56:16.605Z,1.13
2023-04-26T01:56:27.312Z,1.14
2023-04-26T01:56:40.213Z,1.11
2023-04-26T01:56:50.929Z,1.11
2023-04-26T01:57:02.750Z,1.11
2023-04-26T01:57:13.454Z,1.10
2023-04-26T01:57:25.846Z,1.11
2023-04-26T01:57:38.233Z,1.10
2023-04-26T01:57:50.421Z,1.10
2023-04-26T01:58:02.685Z,1.08
2023-04-26T01:58:13.407Z,1.08
2023-04-26T01:58:24.181Z,1.08
2023-04-26T01:58:37.340Z,1.06
2023-04-26T01:58:49.162Z,1.06
2023-04-26T01:58:59.868Z,1.06
2023-04-26T01:59:10.574Z,1.04
2023-04-26T01:59:22.998Z,1.02
2023-04-26T01:59:35.543Z,1.02
2023-04-26T01:59:46.354Z,1.02
2023-04-26T01:59:59.522Z,1.00
2023-04-26T02:00:10.300Z,1.00
2023-04-26T02:00:23.219Z,1.00
2023-04-26T02:00:33.928Z,1.00
2023-04-26T02:00:47.059Z,1.00
2023-04-26T02:00:57.752Z,0.98
2023-04-26T02:01:09.734Z,0.99
2023-04-26T02:01:20.474Z,0.98
2023-04-26T02:01:32.648Z,0.98
2023-04-26T02:01:43.445Z,0.96
2023-04-26T02:01:55.932Z,0.98
2023-04-26T02:02:07.681Z,0.98
2023-04-26T02:02:18.438Z,0.98
2023-04-26T02:02:29.170Z,0.98
2023-04-26T02:02:39.957Z,0.98
2023-04-26T02:02:50.872Z,0.98
2023-04-26T02:03:03.389Z,0.99
2023-04-26T02:03:16.405Z,0.96
2023-04-26T02:03:27.115Z,0.96
2023-04-26T02:03:39.370Z,0.95
2023-04-26T02:03:52.565Z,0.95
2023-04-26T02:04:04.259Z,0.95
2023-04-26T02:04:14.977Z,0.95
2023-04-26T02:04:27.428Z,0.95
2023-04-26T02:04:38.121Z,0.95
2023-04-26T02:04:48.812Z,0.95
2023-04-26T02:04:59.541Z,0.93
2023-04-26T02:05:13.268Z,0.93
2023-04-26T02:05:24.091Z,0.95
2023-04-26T02:05:35.722Z,0.92
2023-04-26T02:05:48.116Z,0.92
2023-04-26T02:05:59.802Z,0.92
2023-04-26T02:06:10.534Z,0.90
2023-04-26T02:06:22.968Z,0.89
2023-04-26T02:06:34.851Z,0.88
2023-04-26T02:06:45.613Z,0.88
2023-04-26T02:06:56.346Z,0.88
2023-04-26T02:07:07.126Z,0.86
2023-04-26T02:07:20.251Z,0.82
2023-04-26T02:07:31.913Z,0.82
2023-04-26T02:07:44.331Z,0.81
2023-04-26T02:07:56.516Z,0.80
2023-04-26T02:08:08.894Z,0.77
2023-04-26T02:08:19.631Z,0.77
2023-04-26T02:08:30.353Z,0.75
2023-04-26T02:08:41.141Z,0.75
2023-04-26T02:08:53.767Z,0.74
2023-04-26T02:09:05.655Z,0.72
2023-04-26T02:09:17.880Z,0.71
2023-04-26T02:09:29.526Z,0.71
2023-04-26T02:09:41.195Z,0.71
2023-04-26T02:09:51.907Z,0.70
2023-04-26T02:10:02.630Z,0.68
2023-04-26T02:10:15.028Z,0.68
2023-04-26T02:10:25.806Z,0.67
2023-04-26T02:10:36.526Z,0.64
2023-04-26T02:10:48.935Z,0.63
2023-04-26T02:10:59.715Z,0.62
2023-04-26T02:11:12.483Z,0.62
2023-04-26T02:11:23.230Z,0.60
2023-04-26T02:11:34.909Z,0.60
2023-04-26T02:11:45.652Z,0.59
2023-04-26T02:11:59.345Z,0.57
2023-04-26T02:12:10.053Z,0.57
2023-04-26T02:12:20.746Z,0.56
2023-04-26T02:12:31.443Z,0.56
2023-04-26T02:12:42.224Z,0.53
2023-04-26T02:12:54.390Z,0.52
2023-04-26T02:13:06.803Z,0.51
2023-04-26T02:13:20.050Z,0.51
2023-04-26T02:13:32.200Z,0.49
2023-04-26T02:13:42.906Z,0.49
2023-04-26T02:13:54.645Z,0.48
2023-04-26T02:14:06.338Z,0.45
2023-04-26T02:14:18.751Z,0.45
2023-04-26T02:14:30.420Z,0.44
2023-04-26T02:14:42.096Z,0.43
2023-04-26T02:14:52.843Z,0.41
2023-04-26T02:15:04.530Z,0.41
2023-04-26T02:15:16.303Z,0.40
2023-04-26T02:15:29.499Z,0.38
2023-04-26T02:15:41.705Z,0.37
2023-04-26T02:15:52.453Z,0.35
2023-04-26T02:16:04.162Z,0.35
2023-04-26T02:16:14.886Z,0.34
2023-04-26T02:16:25.646Z,0.31
2023-04-26T02:16:38.114Z,0.33
2023-04-26T02:16:50.546Z,0.30
2023-04-26T02:17:01.294Z,0.30
2023-04-26T02:17:13.124Z,0.28
2023-04-26T02:17:25.610Z,0.26
2023-04-26T02:17:37.296Z,0.25
2023-04-26T02:17:49.851Z,0.25
2023-04-26T02:18:02.067Z,0.22
2023-04-26T02:18:13.730Z,0.20
2023-04-26T02:18:25.421Z,0.19
2023-04-26T02:18:36.154Z,0.16
2023-04-26T02:18:47.838Z,0.16
2023-04-26T02:18:59.497Z,0.15
2023-04-26T02:19:12.001Z,0.15
2023-04-26T02:19:23.757Z,0.13
2023-04-26T02:19:34.503Z,0.12
2023-04-26T02:19:46.202Z,0.10
2023-04-26T02:19:58.585Z,0.08
2023-04-26T02:20:09.317Z,0.07
2023-04-26T02:20:21.018Z,0.07
2023-04-26T02:20:31.747Z,0.05
2023-04-26T02:20:43.935Z,0.04
2023-04-26T02:20:56.361Z,0.02
2023-04-26T02:21:08.827Z,0.02
2023-04-26T02:21:19.574Z,0.01
2023-04-26T02:21:31.230Z,0.01
2023-04-26T02:21:42.932Z,0.01
2023-04-26T02:21:53.632Z,-0.02
2023-04-26T02:22:05.308Z,-0.03
2023-04-26T02:22:16.018Z,-0.03
2023-04-26T02:22:28.223Z,-0.03
2023-04-26T02:22:40.474Z,-0.05
2023-04-26T02:22:52.947Z,-0.06
2023-04-26T02:23:04.653Z,-0.06
2023-04-26T02:23:15.366Z,-0.09
2023-04-26T02:23:27.067Z,-0.09
2023-04-26T02:23:39.751Z,-0.12
2023-04-26T02:23:50.461Z,-0.13
2023-04-26T02:24:02.866Z,-0.13
2023-04-26T02:24:13.578Z,-0.14
2023-04-26T02:24:25.775Z,-0.13
2023-04-26T02:24:36.477Z,-0.17
2023-04-26T02:24:47.263Z,-0.17
2023-04-26T02:24:57.973Z,-0.19
2023-04-26T02:25:10.668Z,-0.19
2023-04-26T02:25:21.368Z,-0.20
2023-04-26T02:25:32.150Z,-0.20
2023-04-26T02:25:44.565Z,-0.21
2023-04-26T02:25:57.282Z,-0.21
2023-04-26T02:26:07.994Z,-0.23
2023-04-26T02:26:18.687Z,-0.24
2023-04-26T02:26:31.857Z,-0.24
2023-04-26T02:26:44.337Z,-0.26
2023-04-26T02:26:56.049Z,-0.30
2023-04-26T02:27:08.472Z,-0.30
2023-04-26T02:27:19.170Z,-0.31
2023-04-26T02:27:31.348Z,-0.32
2023-04-26T02:27:42.248Z,-0.32
2023-04-26T02:27:54.010Z,-0.32
2023-04-26T02:28:05.712Z,-0.34
2023-04-26T02:28:16.417Z,-0.34
2023-04-26T02:28:27.166Z,-0.35
2023-04-26T02:28:40.334Z,-0.35
2023-04-26T02:28:51.273Z,-0.38
2023-04-26T02:29:02.102Z,-0.37
2023-04-26T02:29:12.806Z,-0.37
2023-04-26T02:29:42.119Z,-0.38
2023-04-26T02:29:44.690Z,-0.37
2023-04-26T02:29:55.692Z,-0.38
2023-04-26T02:30:06.420Z,-0.38
2023-04-26T02:30:17.140Z,-0.39
2023-04-26T02:30:28.930Z,-0.39
2023-04-26T02:30:40.573Z,-0.39
2023-04-26T02:30:52.979Z,-0.41
2023-04-26T02:31:03.711Z,-0.42
2023-04-26T02:31:16.140Z,-0.42
2023-04-26T02:31:26.937Z,-0.42
2023-04-26T02:31:39.892Z,-0.42
2023-04-26T02:31:52.375Z,-0.42
2023-04-26T02:32:04.824Z,-0.44
2023-04-26T02:32:16.542Z,-0.42
2023-04-26T02:32:28.967Z,-0.44
2023-04-26T02:32:39.685Z,-0.44
2023-04-26T02:32:50.406Z,-0.44
2023-04-26T02:33:02.196Z,-0.45
2023-04-26T02:33:13.938Z,-0.47
2023-04-26T02:33:24.685Z,-0.45
2023-04-26T02:33:35.484Z,-0.47
2023-04-26T02:33:47.138Z,-0.47
2023-04-26T02:33:59.829Z,-0.47
2023-04-26T02:34:11.496Z,-0.47
2023-04-26T02:34:22.201Z,-0.49